Pueblo Of Acoma, New Mexico
Current Conditions -  °F | °C
As of 4:15 AM on Saturday 20 Dec 2014 (Local Time) from KGNT Reporting Station
Moderate Fog Moderate Fog  
Wind Chill: 19°   Ceiling: 100
Heat Index: 19°   Visibility: 0.5mi
Dew Point: 18°   Wind: 0mph
Humidity: 96%   Direction: NA
Pressure: 30.19"   Gusts: NA
Location:  35.08°N, 107.6°W
Report Text: KGNT 201115Z AUTO 00000KT 1/2SM FZFG OVC001 M07/M08 A3019 RMK AO2 T10721077
Loading
Personal Weather Stations






























Interactive Weather Map New forecast layout! Learn more

10-Day Weather Forecast

Advertisements
Track Severe Weather on mobile